Time;durP1;ratioP1;P1;durP2;ratioP2;P2;SDS_P1;SDS_P2;PMS_P1;PMS_P2;Temp;Humidity;BMP_temperature;BMP_pressure;BME280_temperature;BME280_humidity;BME280_pressure;Samples;Min_cycle;Max_cycle;Signal;HPM_P1;HPM_P2
2022/09/03 00:02:21;;;;;;;;;12.25;12.25;;;;;21.70;59.12;100051.59;5145482;27;45325;-76
2022/09/03 00:05:04;;;;;;;;;11.00;11.00;;;;;21.68;59.03;100050.88;5145273;27;46743;-74
2022/09/03 00:07:42;;;;;;;;;6.75;6.75;;;;;21.67;59.19;100044.72;5142978;27;45361;-78
2022/09/03 00:10:14;;;;;;;;;12.25;11.75;;;;;21.69;59.39;100049.91;5143510;27;45532;-73
2022/09/03 00:12:43;;;;;;;;;12.75;12.75;;;;;21.67;59.70;100050.06;5143357;27;45204;-74
2022/09/03 00:15:17;;;;;;;;;11.25;11.25;;;;;21.63;59.87;100043.31;5122116;27;48168;-76
2022/09/03 00:18:01;;;;;;;;;12.00;12.00;;;;;21.64;59.55;100044.16;5142991;27;45381;-75
2022/09/03 00:20:33;;;;;;;;;12.50;12.50;;;;;21.64;60.22;100050.34;5142324;27;45371;-74
2022/09/03 00:23:06;;;;;;;;;14.25;14.25;;;;;21.62;60.30;100041.59;5123703;27;45261;-74
2022/09/03 00:25:43;;;;;;;;;13.00;13.00;;;;;21.62;60.37;100046.09;5138203;27;45339;-76
2022/09/03 00:28:23;;;;;;;;;11.50;11.50;;;;;21.58;60.18;100049.06;5140680;27;45252;-75
2022/09/03 00:30:55;;;;;;;;;12.50;12.50;;;;;21.57;60.57;100044.69;5136668;27;45396;-73
2022/09/03 00:33:25;;;;;;;;;16.00;15.75;;;;;21.54;60.68;100047.66;5138181;27;45294;-77
2022/09/03 00:36:11;;;;;;;;;11.50;11.50;;;;;21.51;60.46;100042.63;5138580;27;45444;-78
2022/09/03 00:38:37;;;;;;;;;9.00;9.00;;;;;21.51;60.54;100039.09;5145349;27;45123;-74
2022/09/03 00:41:25;;;;;;;;;11.00;11.00;;;;;21.51;60.58;100037.25;5148444;27;45398;-76
2022/09/03 00:44:18;;;;;;;;;13.00;13.00;;;;;21.47;60.36;100035.88;5144250;27;45325;-73
2022/09/03 00:47:05;;;;;;;;;12.25;12.25;;;;;21.47;60.47;100043.91;5139414;27;45357;-74
2022/09/03 00:49:54;;;;;;;;;10.00;10.00;;;;;21.47;60.42;100038.53;5140441;27;45189;-75
2022/09/03 00:52:44;;;;;;;;;12.50;12.50;;;;;21.45;60.42;100037.84;5119181;27;45334;-76
2022/09/03 00:55:16;;;;;;;;;11.00;11.00;;;;;21.45;60.55;100037.84;5137827;27;45369;-76
2022/09/03 00:57:41;;;;;;;;;10.25;10.25;;;;;21.45;60.49;100046.72;5137014;27;45343;-74
2022/09/03 01:00:10;;;;;;;;;10.00;10.00;;;;;21.46;60.31;100042.22;5136871;27;45283;-74
2022/09/03 01:02:46;;;;;;;;;11.00;11.00;;;;;21.47;60.51;100048.41;5136949;27;45214;-73
2022/09/03 01:05:33;;;;;;;;;10.50;10.50;;;;;21.44;60.56;100047.72;5137399;27;45176;-73
2022/09/03 01:08:23;;;;;;;;;9.00;9.00;;;;;21.40;60.54;100046.31;5136464;27;45700;-72
2022/09/03 01:11:17;;;;;;;;;10.75;10.75;;;;;21.42;61.06;100054.19;5139137;27;45384;-72
2022/09/03 01:14:10;;;;;;;;;9.25;9.25;;;;;21.42;60.54;100056.88;5122691;27;45392;-76
2022/09/03 01:16:51;;;;;;;;;8.00;8.00;;;;;21.40;60.66;100049.00;5125641;27;45313;-76
2022/09/03 01:19:39;;;;;;;;;7.75;7.75;;;;;21.38;60.24;100056.31;5141044;27;46596;-75
2022/09/03 01:22:06;;;;;;;;;8.75;8.75;;;;;21.38;60.47;100055.47;5122384;27;45308;-74
2022/09/03 01:24:43;;;;;;;;;6.00;6.00;;;;;21.35;60.24;100055.75;5140307;27;45410;-74
2022/09/03 01:27:37;;;;;;;;;7.00;7.00;;;;;21.29;60.45;100054.53;5140373;27;45473;-76
2022/09/03 01:30:17;;;;;;;;;7.25;7.25;;;;;21.28;60.31;100063.53;5144500;27;45324;-73
2022/09/03 01:32:45;;;;;;;;;6.75;6.75;;;;;21.27;60.49;100067.19;5132835;27;45716;-74
2022/09/03 01:35:35;;;;;;;;;3.50;3.50;;;;;21.26;60.65;100057.50;5140821;27;45386;-76
2022/09/03 01:38:15;;;;;;;;;9.00;9.00;;;;;21.27;60.74;100057.31;5121366;27;45319;-73
2022/09/03 01:40:51;;;;;;;;;6.25;6.25;;;;;21.24;60.45;100049.59;5139808;27;45589;-75
2022/09/03 01:43:57;;;;;;;;;8.00;8.00;;;;;21.22;60.70;100054.25;5139619;27;45417;-76
2022/09/03 01:46:28;;;;;;;;;6.00;6.00;;;;;21.19;60.75;100053.66;5135201;27;45606;-73
2022/09/03 01:49:23;;;;;;;;;6.00;6.00;;;;;21.14;60.74;100054.94;5139571;27;45372;-76
2022/09/03 01:51:59;;;;;;;;;8.75;8.75;;;;;21.12;60.93;100048.91;5139420;27;46483;-74
2022/09/03 01:54:37;;;;;;;;;7.75;7.75;;;;;21.12;61.15;100056.91;5139028;27;45491;-78
2022/09/03 01:57:33;;;;;;;;;6.50;6.50;;;;;21.13;61.09;100053.25;5139342;27;45412;-76
2022/09/03 02:00:13;;;;;;;;;7.00;7.00;;;;;21.11;61.50;100038.38;5120658;27;45459;-74
2022/09/03 02:02:46;;;;;;;;;8.00;8.00;;;;;21.10;61.54;100056.22;5139500;27;46104;-76
2022/09/03 02:05:13;;;;;;;;;7.00;7.00;;;;;21.08;61.60;100047.50;5138952;27;45429;-74
2022/09/03 02:07:41;;;;;;;;;8.50;8.50;;;;;21.06;61.99;100052.16;5139887;27;45381;-78
2022/09/03 02:10:11;;;;;;;;;9.50;9.50;;;;;21.03;61.78;100049.75;5140513;27;45555;-75
2022/09/03 02:12:39;;;;;;;;;7.25;7.25;;;;;21.00;62.01;100039.34;5139364;27;46032;-76
2022/09/03 02:15:13;;;;;;;;;7.50;7.50;;;;;20.99;62.16;100037.66;5138789;27;45389;-76
2022/09/03 02:17:41;;;;;;;;;8.75;8.75;;;;;20.98;62.35;100054.69;5139567;27;45420;-76
2022/09/03 02:20:10;;;;;;;;;6.50;6.50;;;;;20.94;62.81;100045.28;5139575;27;45321;-77
2022/09/03 02:22:38;;;;;;;;;7.75;7.75;;;;;20.92;62.82;100044.56;5146568;27;45421;-77
2022/09/03 02:25:04;;;;;;;;;8.25;8.25;;;;;20.91;62.73;100043.75;5146494;27;44746;-76
2022/09/03 02:27:30;;;;;;;;;7.00;7.00;;;;;20.91;62.78;100050.91;5141441;27;45325;-78
2022/09/03 02:29:56;;;;;;;;;9.00;9.00;;;;;20.86;63.30;100040.66;5122077;27;45306;-77
2022/09/03 02:32:22;;;;;;;;;12.75;12.75;;;;;20.82;63.43;100050.78;5141167;27;46339;-73
2022/09/03 02:34:47;;;;;;;;;7.00;7.00;;;;;20.77;63.75;100044.97;5139882;27;45384;-74
2022/09/03 02:37:15;;;;;;;;;9.50;9.50;;;;;20.77;63.97;100050.31;5139327;27;45247;-72
2022/09/03 02:39:41;;;;;;;;;8.75;8.75;;;;;20.73;64.18;100047.09;5139186;27;45194;-78
2022/09/03 02:42:09;;;;;;;;;11.75;11.75;;;;;20.73;64.37;100052.44;5138454;27;45447;-72
2022/09/03 02:44:41;;;;;;;;;10.75;10.75;;;;;20.73;64.31;100056.94;5138210;27;45348;-74
2022/09/03 02:47:07;;;;;;;;;11.00;11.00;;;;;20.70;64.47;100055.41;5138670;27;45355;-74
2022/09/03 02:49:33;;;;;;;;;10.25;10.25;;;;;20.72;64.54;100058.78;5120102;27;45865;-72
2022/09/03 02:52:04;;;;;;;;;10.25;10.25;;;;;20.71;64.79;100053.56;5137914;27;45993;-74
2022/09/03 02:54:32;;;;;;;;;8.75;8.75;;;;;20.65;64.99;100049.59;5138070;27;45285;-73
2022/09/03 02:56:58;;;;;;;;;9.00;9.00;;;;;20.71;65.44;100056.22;5138220;27;45452;-74
2022/09/03 02:59:23;;;;;;;;;10.75;10.75;;;;;20.66;65.32;100053.97;5138257;27;45512;-73
2022/09/03 03:01:48;;;;;;;;;11.00;11.00;;;;;20.62;65.77;100051.72;5138485;27;45373;-74
2022/09/03 03:04:14;;;;;;;;;11.25;11.00;;;;;20.54;66.05;100050.59;5138094;27;45420;-75
2022/09/03 03:06:39;;;;;;;;;10.00;10.00;;;;;20.53;66.23;100046.25;5138425;27;45373;-73
2022/09/03 03:09:05;;;;;;;;;10.75;10.75;;;;;20.52;66.96;100049.03;5139374;27;45739;-75
2022/09/03 03:11:32;;;;;;;;;12.25;12.25;;;;;20.46;66.48;100053.13;5119141;27;48403;-72
2022/09/03 03:13:57;;;;;;;;;13.50;13.50;;;;;20.47;67.15;100054.81;5137645;27;45243;-73
2022/09/03 03:16:22;;;;;;;;;15.75;15.75;;;;;20.46;67.18;100054.94;5119606;27;45375;-73
2022/09/03 03:18:48;;;;;;;;;12.00;12.00;;;;;20.44;66.98;100055.09;5138415;27;45256;-74
2022/09/03 03:21:16;;;;;;;;;13.00;13.00;;;;;20.43;67.63;100058.75;5137802;27;55388;-75
2022/09/03 03:23:41;;;;;;;;;14.50;14.00;;;;;20.42;67.44;100049.03;5118075;27;45483;-75
2022/09/03 03:26:12;;;;;;;;;14.00;14.00;;;;;20.42;67.49;100049.88;5136363;27;45440;-73
2022/09/03 03:28:41;;;;;;;;;16.50;16.50;;;;;20.40;67.68;100054.50;5136709;27;45405;-74
2022/09/03 03:31:12;;;;;;;;;13.00;13.00;;;;;20.38;67.53;100055.66;5137288;27;45311;-72
2022/09/03 03:33:38;;;;;;;;;14.00;14.00;;;;;20.32;67.93;100043.69;5136667;27;45406;-72
2022/09/03 03:36:14;;;;;;;;;11.25;11.25;;;;;20.35;67.94;100047.91;5137609;27;45477;-77
2022/09/03 03:38:41;;;;;;;;;11.25;11.25;;;;;20.33;68.37;100050.72;5138303;27;45193;-74
2022/09/03 03:41:11;;;;;;;;;14.25;14.25;;;;;20.32;68.32;100046.34;5137611;27;45344;-74
2022/09/03 03:43:36;;;;;;;;;12.50;12.50;;;;;20.31;68.64;100043.84;5137808;27;45338;-74
2022/09/03 03:46:02;;;;;;;;;12.25;12.25;;;;;20.32;68.76;100050.88;5140129;27;45367;-73
2022/09/03 03:48:28;;;;;;;;;13.75;13.75;;;;;20.28;68.92;100036.94;5120019;27;45298;-73
2022/09/03 03:50:53;;;;;;;;;11.75;11.75;;;;;20.24;69.12;100039.03;5117892;27;46892;-73
2022/09/03 03:53:18;;;;;;;;;15.75;15.00;;;;;20.22;69.26;100035.66;5136719;27;45470;-73
2022/09/03 03:55:56;;;;;;;;;14.50;14.50;;;;;20.23;69.05;100042.69;5136510;27;45381;-74
2022/09/03 03:58:22;;;;;;;;;15.00;15.00;;;;;20.19;68.80;100035.94;5137958;27;45383;-72
2022/09/03 04:00:49;;;;;;;;;13.00;13.00;;;;;20.20;69.02;100024.28;5118287;27;46084;-72
2022/09/03 04:03:14;;;;;;;;;14.00;14.00;;;;;20.24;69.45;100038.19;5118398;27;45347;-73
2022/09/03 04:05:39;;;;;;;;;14.50;14.50;;;;;20.14;69.20;100024.81;5137021;27;45454;-73
2022/09/03 04:08:05;;;;;;;;;15.00;15.00;;;;;20.19;69.76;100035.94;5137603;27;45531;-73
2022/09/03 04:10:30;;;;;;;;;15.75;15.75;;;;;20.17;69.27;100032.56;5117925;27;45360;-73
2022/09/03 04:12:56;;;;;;;;;14.75;14.75;;;;;20.18;69.48;100031.59;5137440;27;45292;-76
2022/09/03 04:15:21;;;;;;;;;12.25;12.25;;;;;20.19;69.37;100040.44;5139135;27;45484;-74
2022/09/03 04:17:47;;;;;;;;;12.25;12.25;;;;;20.19;69.68;100032.41;5142033;27;45215;-72
2022/09/03 04:20:12;;;;;;;;;13.75;13.75;;;;;20.20;69.32;100036.78;5145391;27;46467;-75
2022/09/03 04:22:37;;;;;;;;;13.75;13.75;;;;;20.20;69.63;100042.13;5138738;27;45359;-74
2022/09/03 04:25:03;;;;;;;;;13.25;13.25;;;;;20.18;69.48;100036.06;5138760;27;45296;-74
2022/09/03 04:27:28;;;;;;;;;13.00;13.00;;;;;20.12;69.83;100037.44;5119518;27;45532;-74
2022/09/03 04:29:54;;;;;;;;;16.75;16.25;;;;;20.15;69.78;100042.53;5137495;27;45376;-74
2022/09/03 04:35:04;;;;;;;;;13.75;13.75;;;;;20.14;70.16;100046.16;5136846;27;45275;-76
2022/09/03 04:37:29;;;;;;;;;10.75;10.75;;;;;20.11;70.37;100044.63;5137126;27;45266;-76
2022/09/03 04:39:54;;;;;;;;;14.25;14.25;;;;;20.07;70.42;100034.34;5137624;27;45238;-75
2022/09/03 04:42:20;;;;;;;;;12.25;12.25;;;;;20.04;70.45;100034.63;5137379;27;45324;-76
2022/09/03 04:44:46;;;;;;;;;13.75;13.75;;;;;20.04;70.63;100042.63;5120951;27;45226;-74
2022/09/03 04:47:11;;;;;;;;;12.25;12.25;;;;;20.06;70.45;100038.84;5140929;27;45315;-76
2022/09/03 04:49:38;;;;;;;;;12.50;12.50;;;;;20.03;70.81;100038.28;5140560;27;45483;-76
2022/09/03 04:52:04;;;;;;;;;13.00;13.00;;;;;20.09;70.49;100045.72;5140748;27;45313;-75
2022/09/03 04:54:29;;;;;;;;;14.00;14.00;;;;;20.04;70.27;100035.47;5140495;27;45395;-76
2022/09/03 04:56:54;;;;;;;;;15.75;15.75;;;;;20.07;70.79;100043.22;5140700;27;45447;-73
2022/09/03 04:59:19;;;;;;;;;14.00;14.00;;;;;20.05;70.49;100042.50;5140323;27;45509;-73
2022/09/03 05:01:45;;;;;;;;;15.75;14.75;;;;;20.07;70.50;100051.22;5140729;27;45316;-73
2022/09/03 05:04:10;;;;;;;;;11.25;11.25;;;;;20.09;70.55;100048.41;5140763;27;45392;-73
2022/09/03 05:06:36;;;;;;;;;13.75;13.75;;;;;20.09;70.85;100049.25;5122822;27;45327;-74
2022/09/03 05:09:02;;;;;;;;;14.00;14.00;;;;;20.08;70.85;100055.59;5140433;27;46470;-73
2022/09/03 05:11:29;;;;;;;;;13.25;13.25;;;;;20.07;70.85;100051.22;5122314;27;45335;-74
2022/09/03 05:13:57;;;;;;;;;11.50;11.50;;;;;20.04;70.78;100050.63;5140912;27;45537;-77
2022/09/03 05:16:23;;;;;;;;;14.25;14.25;;;;;20.04;70.89;100047.97;5143006;27;45468;-77
2022/09/03 05:18:53;;;;;;;;;14.00;14.00;;;;;20.05;70.90;100044.31;5142492;27;46321;-75
2022/09/03 05:21:19;;;;;;;;;12.50;12.50;;;;;20.03;71.33;100038.28;5139604;27;45421;-73
2022/09/03 05:23:46;;;;;;;;;13.75;13.75;;;;;20.03;70.81;100044.47;5139988;27;45293;-73
2022/09/03 05:26:15;;;;;;;;;16.50;16.50;;;;;20.05;70.68;100047.00;5140273;27;45561;-75
2022/09/03 05:28:41;;;;;;;;;12.00;12.00;;;;;20.05;71.35;100045.19;5139897;27;46544;-75
2022/09/03 05:31:09;;;;;;;;;12.25;12.25;;;;;20.09;70.58;100051.06;5139628;27;45368;-77
2022/09/03 05:33:37;;;;;;;;;11.00;11.00;;;;;20.08;71.29;100049.38;5139549;27;45338;-74
2022/09/03 05:36:04;;;;;;;;;16.00;16.00;;;;;20.12;71.06;100058.81;5139689;27;45328;-74
2022/09/03 05:38:30;;;;;;;;;13.75;13.75;;;;;20.09;70.87;100049.25;5139515;27;45641;-74
2022/09/03 05:41:00;;;;;;;;;12.25;12.25;;;;;20.12;70.94;100054.31;5139798;27;45401;-73
2022/09/03 05:43:27;;;;;;;;;10.00;10.00;;;;;20.16;70.87;100054.06;5121597;27;45627;-77
2022/09/03 05:45:57;;;;;;;;;15.25;14.50;;;;;20.14;70.68;100046.16;5140055;27;45407;-78
2022/09/03 05:48:22;;;;;;;;;13.50;13.50;;;;;20.21;70.96;100066.03;5140003;27;46197;-76
2022/09/03 05:50:48;;;;;;;;;12.75;12.75;;;;;20.22;70.77;100067.72;5140324;27;45186;-78
2022/09/03 05:53:13;;;;;;;;;14.00;14.00;;;;;20.22;70.22;100069.53;5140872;27;45360;-77
2022/09/03 05:55:39;;;;;;;;;12.50;12.50;;;;;20.26;70.76;100073.59;5140904;27;45373;-73
2022/09/03 05:58:04;;;;;;;;;12.00;12.00;;;;;20.27;70.41;100070.81;5140809;27;46827;-71
2022/09/03 06:00:29;;;;;;;;;12.00;12.00;;;;;20.20;70.67;100063.47;5139936;27;45258;-75
2022/09/03 06:02:55;;;;;;;;;14.25;14.25;;;;;20.29;70.20;100082.19;5139420;27;45325;-75
2022/09/03 06:05:20;;;;;;;;;11.75;11.75;;;;;20.34;70.23;100083.63;5140092;27;45558;-76
2022/09/03 06:07:48;;;;;;;;;15.75;15.75;;;;;20.36;70.42;100089.66;5143254;27;46007;-78
2022/09/03 06:10:16;;;;;;;;;12.00;12.00;;;;;20.36;70.06;100095.00;5142860;27;45328;-75
2022/09/03 06:12:44;;;;;;;;;14.00;14.00;;;;;20.34;70.49;100096.97;5123861;27;45279;-73
2022/09/03 06:15:10;;;;;;;;;14.75;14.00;;;;;20.38;70.00;100101.06;5141355;27;45376;-76
2022/09/03 06:17:37;;;;;;;;;13.75;13.75;;;;;20.39;69.80;100108.09;5140816;27;45449;-79
2022/09/03 06:20:03;;;;;;;;;13.50;13.50;;;;;20.39;70.37;100097.41;5140877;27;45386;-74
2022/09/03 06:22:30;;;;;;;;;13.00;12.75;;;;;20.42;70.06;100100.63;5141022;27;45412;-79
2022/09/03 06:24:55;;;;;;;;;15.25;15.25;;;;;20.41;70.19;100104.28;5140558;27;45503;-75
2022/09/03 06:27:20;;;;;;;;;13.00;13.00;;;;;20.48;69.43;100101.91;5140060;27;46343;-77
2022/09/03 06:29:46;;;;;;;;;14.50;14.00;;;;;20.51;70.04;100100.78;5140599;27;45470;-75
2022/09/03 06:32:11;;;;;;;;;16.75;16.75;;;;;20.57;69.44;100098.41;5140403;27;45316;-76
2022/09/03 06:34:36;;;;;;;;;17.25;17.25;;;;;20.61;69.01;100106.16;5144309;27;45385;-78
2022/09/03 06:37:02;;;;;;;;;13.00;13.00;;;;;20.64;69.47;100109.38;5128970;27;47088;-75
2022/09/03 06:39:27;;;;;;;;;13.25;13.25;;;;;20.60;69.17;100109.81;5131827;27;45192;-79
2022/09/03 06:41:53;;;;;;;;;17.50;17.50;;;;;20.64;69.21;100111.22;5143672;27;45314;-79
2022/09/03 06:44:19;;;;;;;;;13.25;13.25;;;;;20.67;69.08;100111.75;5143613;27;45570;-79
2022/09/03 06:46:47;;;;;;;;;17.25;16.00;;;;;20.74;68.86;100122.75;5141285;27;45583;-79
2022/09/03 06:49:13;;;;;;;;;14.25;14.25;;;;;20.76;68.71;100114.63;5140517;27;45439;-72
2022/09/03 06:51:39;;;;;;;;;14.25;14.25;;;;;20.80;68.51;100116.06;5140342;27;45373;-75
2022/09/03 06:54:07;;;;;;;;;13.00;13.00;;;;;20.82;68.17;100128.28;5121316;27;45403;-75
2022/09/03 06:56:35;;;;;;;;;16.50;16.50;;;;;20.84;68.57;100128.16;5139540;27;45424;-78
2022/09/03 06:59:08;;;;;;;;;15.25;15.25;;;;;20.85;68.46;100119.97;5139240;27;45354;-79
2022/09/03 07:01:34;;;;;;;;;15.50;15.50;;;;;20.91;67.95;100123.94;5139276;27;45454;-77
2022/09/03 07:04:02;;;;;;;;;18.75;18.75;;;;;20.95;67.84;100124.47;5139880;27;45275;-77
2022/09/03 07:06:31;;;;;;;;;14.25;14.25;;;;;20.95;68.08;100124.47;5141402;27;46523;-78
2022/09/03 07:08:57;;;;;;;;;13.25;13.25;;;;;21.04;67.73;100126.31;5141135;27;45481;-78
2022/09/03 07:11:32;;;;;;;;;14.00;14.00;;;;;21.16;67.31;100119.00;5148293;27;45408;-74
2022/09/03 07:13:58;;;;;;;;;12.00;12.00;;;;;21.23;66.89;100111.28;5142480;27;45225;-77
2022/09/03 07:16:33;;;;;;;;;10.50;10.50;;;;;21.30;66.47;100113.22;5138675;27;46744;-75
2022/09/03 07:18:59;;;;;;;;;14.00;14.00;;;;;21.40;66.32;100118.56;5139155;27;45334;-77
2022/09/03 07:21:27;;;;;;;;;14.25;14.25;;;;;21.47;65.82;100116.13;5139436;27;45184;-77
2022/09/03 07:23:54;;;;;;;;;13.00;13.00;;;;;21.48;65.81;100115.16;5146892;27;45340;-77
2022/09/03 07:26:32;;;;;;;;;19.50;19.50;;;;;21.57;65.50;100119.63;5117822;27;47111;-76
2022/09/03 07:28:59;;;;;;;;;13.25;13.25;;;;;21.56;65.32;100123.28;5117385;27;45512;-79
2022/09/03 07:31:27;;;;;;;;;13.25;13.25;;;;;21.52;65.86;100126.41;5117473;27;45333;-76
2022/09/03 07:34:05;;;;;;;;;23.25;23.25;;;;;21.50;65.79;100128.41;5098509;27;45281;-77
2022/09/03 07:36:37;;;;;;;;;12.25;12.25;;;;;21.50;65.54;100129.22;5119185;27;45459;-77
2022/09/03 07:39:03;;;;;;;;;15.00;14.25;;;;;21.52;65.68;100131.78;5099241;27;45426;-77
2022/09/03 07:41:30;;;;;;;;;22.25;20.25;;;;;21.58;65.13;100141.91;5117223;27;45379;-75
2022/09/03 07:43:55;;;;;;;;;12.50;12.50;;;;;21.63;65.00;100142.34;5116625;27;45350;-73
2022/09/03 07:46:26;;;;;;;;;13.00;13.00;;;;;21.63;64.67;100139.66;5116466;27;46361;-77
2022/09/03 07:48:53;;;;;;;;;13.25;13.25;;;;;21.70;64.59;100142.59;5116814;27;45474;-74
2022/09/03 07:51:21;;;;;;;;;15.50;15.50;;;;;21.80;64.49;100142.56;5116976;27;45361;-73
2022/09/03 07:53:47;;;;;;;;;15.00;15.00;;;;;21.89;64.22;100147.91;5097133;27;45449;-74
2022/09/03 07:56:14;;;;;;;;;15.00;15.00;;;;;22.01;63.89;100153.06;5098211;27;45851;-74
2022/09/03 07:58:41;;;;;;;;;11.50;11.50;;;;;22.13;63.72;100145.69;5117353;27;45320;-72
2022/09/03 08:01:20;;;;;;;;;15.50;15.50;;;;;22.20;63.47;100146.78;5106567;27;45313;-74
2022/09/03 08:03:48;;;;;;;;;12.50;12.50;;;;;22.36;62.96;100150.66;5117583;27;45339;-76
2022/09/03 08:06:15;;;;;;;;;11.25;11.25;;;;;22.49;62.65;100144.97;5116787;27;45432;-73
2022/09/03 08:08:41;;;;;;;;;12.00;12.00;;;;;22.60;62.33;100145.63;5116467;27;45328;-74
2022/09/03 08:11:18;;;;;;;;;13.50;13.50;;;;;22.69;62.06;100148.38;5116775;27;45353;-75
2022/09/03 08:13:52;;;;;;;;;12.25;12.00;;;;;22.79;61.28;100145.63;5116679;27;45276;-74
2022/09/03 08:16:18;;;;;;;;;12.00;12.00;;;;;22.87;61.53;100151.09;5117496;27;45319;-74
2022/09/03 08:18:44;;;;;;;;;9.50;9.50;;;;;22.92;60.67;100151.47;5127431;27;45395;-74
2022/09/03 08:21:15;;;;;;;;;5.00;5.00;;;;;22.98;60.73;100166.09;5117116;27;45408;-74
2022/09/03 08:23:43;;;;;;;;;11.75;11.75;;;;;23.09;60.55;100171.22;5130518;27;45207;-74
2022/09/03 08:26:09;;;;;;;;;9.75;9.75;;;;;23.29;60.33;100169.25;5116025;27;45428;-75
2022/09/03 08:28:35;;;;;;;;;12.50;12.50;;;;;23.45;59.30;100171.25;5116515;27;45361;-73
2022/09/03 08:31:05;;;;;;;;;11.00;11.00;;;;;23.67;58.84;100174.41;5116331;27;45358;-73
2022/09/03 08:33:36;;;;;;;;;14.00;14.00;;;;;23.88;58.61;100171.38;5113079;27;45417;-79
2022/09/03 08:36:08;;;;;;;;;12.50;12.50;;;;;24.01;58.06;100170.13;5118107;27;47522;-76
2022/09/03 08:38:35;;;;;;;;;12.00;12.00;;;;;24.08;58.27;100176.53;5137001;27;45379;-76
2022/09/03 08:41:19;;;;;;;;;10.00;10.00;;;;;24.17;57.63;100182.78;5135356;27;45464;-76
2022/09/03 08:44:04;;;;;;;;;28.00;28.00;;;;;24.17;57.02;100188.16;5116928;27;45332;-76
2022/09/03 08:47:01;;;;;;;;;8.50;8.50;;;;;24.18;57.52;100179.94;5117014;27;46231;-78
2022/09/03 08:49:48;;;;;;;;;5.75;5.75;;;;;24.27;57.12;100178.13;5098198;27;45423;-72
2022/09/03 08:52:24;;;;;;;;;9.50;9.50;;;;;24.35;56.70;100194.28;5125016;27;45457;-74
2022/09/03 08:54:54;;;;;;;;;13.75;13.25;;;;;24.36;56.42;100193.28;5126885;27;45406;-74
2022/09/03 08:57:20;;;;;;;;;7.50;7.50;;;;;24.42;55.24;100197.19;5117573;27;46361;-72
2022/09/03 08:59:50;;;;;;;;;6.25;6.25;;;;;24.48;55.40;100199.22;5119666;27;45318;-73
2022/09/03 09:02:34;;;;;;;;;4.25;4.25;;;;;24.54;54.36;100199.56;5133169;27;45424;-75
2022/09/03 09:05:24;;;;;;;;;6.00;6.00;;;;;24.53;54.52;100197.88;5131207;27;45283;-74
2022/09/03 09:08:08;;;;;;;;;7.00;7.00;;;;;24.55;54.92;100191.34;5108922;27;46212;-76
2022/09/03 09:10:45;;;;;;;;;8.50;8.50;;;;;24.78;54.48;100207.75;5137505;27;45326;-77
2022/09/03 09:13:32;;;;;;;;;7.50;7.50;;;;;24.83;54.34;100199.19;5128190;27;45388;-76
2022/09/03 09:16:17;;;;;;;;;6.75;6.75;;;;;24.89;53.84;100200.38;5117289;27;45169;-72
2022/09/03 09:19:03;;;;;;;;;9.00;9.00;;;;;24.81;53.43;100206.59;5119752;27;45281;-74
2022/09/03 09:21:44;;;;;;;;;6.75;6.75;;;;;24.76;53.72;100211.63;5093669;27;45332;-75
2022/09/03 09:24:27;;;;;;;;;5.00;5.00;;;;;24.74;53.60;100202.88;5132690;27;45466;-76
2022/09/03 09:26:59;;;;;;;;;6.00;6.00;;;;;24.67;53.50;100204.50;5127151;27;45343;-82
2022/09/03 09:29:29;;;;;;;;;9.75;9.75;;;;;24.53;54.18;100193.38;5122586;27;45419;-76
2022/09/03 09:31:55;;;;;;;;;5.00;5.00;;;;;24.38;54.57;100195.81;5135587;27;45433;-74
2022/09/03 09:34:20;;;;;;;;;9.50;9.50;;;;;24.32;54.48;100202.66;5136704;27;45571;-73
2022/09/03 09:36:52;;;;;;;;;7.00;7.00;;;;;24.40;55.19;100185.75;5101426;27;45429;-76
2022/09/03 09:39:18;;;;;;;;;6.00;6.00;;;;;24.61;54.81;100190.69;5125225;27;45793;-73
2022/09/03 09:42:07;;;;;;;;;6.75;6.75;;;;;24.82;54.44;100202.03;5110467;27;45648;-75
2022/09/03 09:44:32;;;;;;;;;6.00;6.00;;;;;25.08;53.75;100205.47;5119655;27;45427;-75
2022/09/03 09:47:05;;;;;;;;;6.25;6.25;;;;;25.36;53.47;100204.28;5106208;27;45519;-72
2022/09/03 09:49:37;;;;;;;;;6.00;6.00;;;;;25.62;53.46;100208.72;5098847;27;47223;-74
2022/09/03 09:52:10;;;;;;;;;8.50;8.50;;;;;25.92;52.85;100201.75;5117025;27;45519;-77
2022/09/03 09:54:35;;;;;;;;;6.25;6.25;;;;;26.17;51.77;100204.44;5136361;27;45502;-76
2022/09/03 09:57:07;;;;;;;;;5.50;5.50;;;;;26.40;51.55;100209.06;5139569;27;45371;-76
2022/09/03 09:59:34;;;;;;;;;7.25;7.25;;;;;26.53;51.08;100214.72;5139085;27;46509;-78
2022/09/03 10:02:25;;;;;;;;;9.00;9.00;;;;;26.58;50.88;100208.81;5141322;27;45145;-76
2022/09/03 10:04:50;;;;;;;;;8.00;8.00;;;;;26.59;50.46;100215.03;5123606;27;45455;-75
2022/09/03 10:07:18;;;;;;;;;6.25;6.25;;;;;26.66;50.65;100206.09;5139733;27;45321;-74
2022/09/03 10:09:44;;;;;;;;;11.50;11.50;;;;;26.76;50.10;100210.41;5119935;27;47222;-76
2022/09/03 10:12:23;;;;;;;;;7.25;7.25;;;;;26.81;50.19;100216.13;5138885;27;45277;-76
2022/09/03 10:15:02;;;;;;;;;8.00;7.75;;;;;26.62;50.04;100210.16;5137624;27;45372;-75
2022/09/03 10:17:59;;;;;;;;;8.25;8.25;;;;;26.46;50.11;100227.25;5138110;27;45484;-75
2022/09/03 10:20:47;;;;;;;;;7.75;7.75;;;;;26.15;50.61;100213.69;5138663;27;45590;-78
2022/09/03 10:23:28;;;;;;;;;5.75;5.75;;;;;25.87;50.70;100219.47;5138864;27;45502;-76
2022/09/03 10:26:15;;;;;;;;;3.25;3.25;;;;;25.61;51.21;100225.88;5137902;27;45409;-77
2022/09/03 10:28:49;;;;;;;;;4.00;4.00;;;;;25.41;51.33;100223.47;5137778;27;45195;-80
2022/09/03 10:31:40;;;;;;;;;4.00;4.00;;;;;25.29;50.82;100225.66;5124307;27;46483;-74
2022/09/03 10:34:24;;;;;;;;;6.00;6.00;;;;;25.21;51.76;100233.75;5138111;27;45390;-74
2022/09/03 10:37:01;;;;;;;;;6.00;6.00;;;;;25.20;51.78;100232.06;5138782;27;45599;-75
2022/09/03 10:39:38;;;;;;;;;8.00;8.00;;;;;25.19;52.39;100227.69;5138648;27;45340;-74
2022/09/03 10:42:44;;;;;;;;;8.50;8.50;;;;;25.22;52.44;100238.94;5138099;27;45302;-76
2022/09/03 10:45:18;;;;;;;;;8.00;8.00;;;;;25.31;52.46;100238.94;5138210;27;45205;-74
2022/09/03 10:48:11;;;;;;;;;11.00;11.00;;;;;25.49;52.12;100242.38;5138589;27;45308;-74
2022/09/03 10:50:49;;;;;;;;;9.75;9.75;;;;;25.59;51.63;100236.81;5134622;27;45316;-76
2022/09/03 10:53:49;;;;;;;;;7.75;7.75;;;;;25.74;51.33;100246.91;5105977;27;47068;-75
2022/09/03 10:57:00;;;;;;;;;21.25;21.25;;;;;25.74;50.84;100239.69;5109756;27;45510;-75
2022/09/03 10:59:52;;;;;;;;;14.00;14.00;;;;;25.61;50.94;100240.19;5114101;27;45251;-76
2022/09/03 11:02:36;;;;;;;;;13.25;13.25;;;;;25.42;51.08;100241.31;5117939;27;45312;-75
2022/09/03 11:05:15;;;;;;;;;10.50;10.50;;;;;25.31;50.96;100237.13;5127863;27;46589;-75
2022/09/03 11:08:35;;;;;;;;;11.50;11.50;;;;;25.26;50.66;100238.59;5135442;27;45219;-76
2022/09/03 11:11:12;;;;;;;;;8.50;8.50;;;;;25.28;50.65;100234.75;5076395;27;45351;-74
2022/09/03 11:13:56;;;;;;;;;4.50;4.50;;;;;25.17;50.88;100219.75;5099097;27;45574;-75
2022/09/03 11:16:27;;;;;;;;;8.25;7.75;;;;;25.16;51.00;100225.31;5122929;27;46691;-75
2022/09/03 11:18:59;;;;;;;;;26.50;26.25;;;;;25.23;51.22;100227.16;5117513;27;45424;-79
2022/09/03 11:21:29;;;;;;;;;6.00;6.00;;;;;25.29;50.80;100224.81;5103121;27;45382;-75
2022/09/03 11:24:08;;;;;;;;;7.25;7.25;;;;;25.38;49.44;100226.50;5133666;27;45442;-76
2022/09/03 11:26:35;;;;;;;;;4.00;4.00;;;;;25.38;50.07;100238.13;5120085;27;47030;-75
2022/09/03 11:29:19;;;;;;;;;4.50;4.50;;;;;25.30;50.29;100239.97;5139538;27;45211;-74
2022/09/03 11:31:58;;;;;;;;;4.75;4.75;;;;;25.19;50.68;100220.44;5138993;27;45270;-73
2022/09/03 11:34:24;;;;;;;;;5.00;5.00;;;;;25.23;50.13;100229.84;5138476;27;45332;-73
2022/09/03 11:36:50;;;;;;;;;5.25;5.25;;;;;25.23;50.41;100232.56;5138405;27;46658;-75
2022/09/03 11:39:31;;;;;;;;;8.00;8.00;;;;;25.30;50.46;100231.88;5138397;27;45316;-73
2022/09/03 11:42:05;;;;;;;;;4.25;4.25;;;;;25.34;49.99;100234.09;5135172;27;46923;-75